Chicago, IL

11:05 PM CDT on September 14, 2014 (GMT -0500)
Chicago-Midway | Change Station
CLOSE
Current Station
Airport
Location: Chicago Midway,
Elevation: 623 ft
Nearby Weather Stations

Elev 623 ft 41.78 °N, 87.76 °W | Updated 14 minutes ago

Partly Cloudy
Partly Cloudy
58 °F
Feels Like 58 °F
N
0
Wind Variable Wind from North

Today
High -- | Low -- °F
--% Chance of Precip.
Yesterday
High -- | Low -- °F
Precip. -- in
6:29 AM 7:01 PM
Waning Gibbous, 59% visible
Pressure 30.18 in
Visibility 10.0 miles
Clouds Scattered Clouds 25000 ft
Dew Point 46 °F
Humidity 65%
Rainfall 0.00 in
Snow Depth Not available.
UV 0 out of 12
Pollen 6.40 out of 12
Ozone Good
PM2.5 Good
Flu Activity Not available.
METAR KMDW 150351Z 00000KT 10SM SCT250 14/08 A3018 RMK AO2 SLP218 T01440078

More Conditions Fewer Conditions

Pressure 30.18 in
Visibility 10.0 miles
Clouds Scattered Clouds 25000 ft
Dew Point 46 °F
Humidity 65%
Rainfall 0.00 in
Snow Depth Not available.
UV 0 out of 12
Pollen 6.40 out of 12
Ozone Good
PM2.5 Good
Flu Activity Not available.
METAR KMDW 150351Z 00000KT 10SM SCT250 14/08 A3018 RMK AO2 SLP218 T01440078

More Conditions Fewer Conditions

10-Day Weather Forecast

Almanac

Astronomy

Sep. 14, 2014 Rise Set
Actual Time 6:29 AM CDT 7:01 PM CDT
Civil Twilight 6:01 AM CDT 7:29 PM CDT
Nautical Twilight 5:28 AM CDT 8:02 PM CDT
Astronomical Twilight 4:54 AM CDT 8:36 PM CDT
Moon 10:48 PM CDT (9/14) 12:40 PM CDT (9/14)
Length of Visible Light 13h 28m
Length of Day
12h 32m
Tomorrow will be 2m 47s shorter.
Waning Gibbous, 59% of the Moon is Illuminated
Sep 15
Waning Gibbous
Sep 15
Last Quarter
Sep 24
New
Oct 1
First Quarter
Oct 8
Full

Today's Extremes

State Highs State Lows

Community

WunderPhotos

Upload Photos

1,753,398 photos uploaded!

Nearby

Air Quality

  Air Quality AQ Index Pollutant
Yesterday Good
PM2.5
Yesterday Good
OZONE
Current Good
PM2.5
Current Good
OZONE
Sunday Moderate
PM2.5
Monday Moderate
PM2.5
Tuesday Good
PM2.5
Wednesday Moderate
PM2.5

Snow Depth

Station Depth Elevation
No new snow has been reported.

Earthquake Activity

City Distance Mag. Time & Date
No recent earthquake activity has been reported nearby.
Minimum magnitude displayed is 2.5.

Coastal Water Temperatures

Place Temperature
No Stations Reporting

Nearby Weather Stations